Time;durP1;ratioP1;P1;durP2;ratioP2;P2;SDS_P1;SDS_P2;PMS_P1;PMS_P2;Temp;Humidity;BMP_temperature;BMP_pressure;BME280_temperature;BME280_humidity;BME280_pressure;Samples;Min_cycle;Max_cycle;Signal;HPM_P1;HPM_P2
2023/10/07 00:01:27;;;;;;;14.23;3.07;;;;;;;;;;5089252;28;20048;-72
2023/10/07 00:03:58;;;;;;;6.97;2.78;;;;;;;;;;5089393;28;20070;-72
2023/10/07 00:06:27;;;;;;;6.13;2.63;;;;;;;;;;5087754;28;20101;-72
2023/10/07 00:08:55;;;;;;;9.73;3.53;;;;;;;;;;5089075;28;20591;-72
2023/10/07 00:11:22;;;;;;;6.57;3.38;;;;;;;;;;5089215;28;20331;-72
2023/10/07 00:13:51;;;;;;;6.68;2.88;;;;;;;;;;5089432;28;20040;-72
2023/10/07 00:16:18;;;;;;;7.20;3.13;;;;;;;;;;5089309;28;20442;-72
2023/10/07 00:18:45;;;;;;;6.85;2.75;;;;;;;;;;5088847;28;20051;-72
2023/10/07 00:21:18;;;;;;;8.57;2.90;;;;;;;;;;5090177;28;20101;-72
2023/10/07 00:23:44;;;;;;;9.18;3.05;;;;;;;;;;5090064;28;20079;-72
2023/10/07 00:26:13;;;;;;;8.50;3.03;;;;;;;;;;5088854;28;20052;-72
2023/10/07 00:28:44;;;;;;;11.60;4.28;;;;;;;;;;5088159;28;20108;-72
2023/10/07 00:31:13;;;;;;;12.18;3.53;;;;;;;;;;5075808;28;20411;-72
2023/10/07 00:34:02;;;;;;;8.40;3.35;;;;;;;;;;5088782;28;20040;-73
2023/10/07 00:39:03;;;;;;;10.40;3.13;;;;;;;;;;5088804;28;20452;-72
2023/10/07 00:41:36;;;;;;;9.38;3.17;;;;;;;;;;5088452;28;20040;-72
2023/10/07 00:44:22;;;;;;;11.85;3.33;;;;;;;;;;5088294;28;20474;-72
2023/10/07 00:47:35;;;;;;;11.32;4.07;;;;;;;;;;5088273;28;20044;-73
2023/10/07 00:52:22;;;;;;;9.07;4.05;;;;;;;;;;5088355;28;20432;-73
2023/10/07 00:57:24;;;;;;;6.97;3.20;;;;;;;;;;5096620;28;20127;-72
2023/10/07 00:59:51;;;;;;;9.13;2.85;;;;;;;;;;5089058;28;20070;-72
2023/10/07 01:02:30;;;;;;;9.10;3.75;;;;;;;;;;5088353;28;20515;-72
2023/10/07 01:05:09;;;;;;;7.22;3.88;;;;;;;;;;5079081;28;20044;-73
2023/10/07 01:07:36;;;;;;;7.93;3.50;;;;;;;;;;5088253;28;20048;-73
2023/10/07 01:12:38;;;;;;;14.75;3.33;;;;;;;;;;5088612;28;20165;-71
2023/10/07 01:15:12;;;;;;;11.15;3.13;;;;;;;;;;5088276;28;20063;-71
2023/10/07 01:17:41;;;;;;;10.82;2.88;;;;;;;;;;5088268;28;20128;-71
2023/10/07 01:20:08;;;;;;;17.63;4.45;;;;;;;;;;5088218;28;20048;-71
2023/10/07 01:22:35;;;;;;;10.63;2.90;;;;;;;;;;5086877;28;20076;-73
2023/10/07 01:25:09;;;;;;;8.43;2.80;;;;;;;;;;5087559;28;20059;-72
2023/10/07 01:27:49;;;;;;;12.43;3.42;;;;;;;;;;5087990;28;20098;-72
2023/10/07 01:30:16;;;;;;;6.28;3.05;;;;;;;;;;5087794;28;20578;-71
2023/10/07 01:35:38;;;;;;;16.00;4.10;;;;;;;;;;5065799;28;20055;-73
2023/10/07 01:38:07;;;;;;;7.95;3.00;;;;;;;;;;5087804;28;20110;-74
2023/10/07 01:40:55;;;;;;;7.22;2.75;;;;;;;;;;5083659;28;20047;-71
2023/10/07 01:43:23;;;;;;;10.90;5.15;;;;;;;;;;5077685;28;20610;-73
2023/10/07 01:45:52;;;;;;;6.00;3.08;;;;;;;;;;5082754;28;20048;-73
2023/10/07 01:48:20;;;;;;;16.88;3.58;;;;;;;;;;5084922;28;20052;-73
2023/10/07 01:50:47;;;;;;;9.57;3.05;;;;;;;;;;5090896;28;20044;-73
2023/10/07 01:53:16;;;;;;;11.00;3.22;;;;;;;;;;5084604;28;20071;-73
2023/10/07 01:55:43;;;;;;;7.80;3.42;;;;;;;;;;5086296;28;20060;-72
2023/10/07 01:58:13;;;;;;;13.02;3.75;;;;;;;;;;5087598;28;20128;-72
2023/10/07 02:00:51;;;;;;;10.07;3.08;;;;;;;;;;5087824;28;20117;-73
2023/10/07 02:03:22;;;;;;;8.18;3.13;;;;;;;;;;5087652;28;20058;-72
2023/10/07 02:05:51;;;;;;;13.10;4.00;;;;;;;;;;5087446;28;20048;-73
2023/10/07 02:08:24;;;;;;;8.05;3.85;;;;;;;;;;5087906;28;20123;-72
2023/10/07 02:10:52;;;;;;;7.93;3.42;;;;;;;;;;5087910;28;20634;-73
2023/10/07 02:13:19;;;;;;;10.85;3.10;;;;;;;;;;5091167;28;20118;-72
2023/10/07 02:15:50;;;;;;;11.27;3.88;;;;;;;;;;5090885;28;20048;-72
2023/10/07 02:18:16;;;;;;;14.57;3.72;;;;;;;;;;5091359;28;20051;-72
2023/10/07 02:20:43;;;;;;;10.70;4.05;;;;;;;;;;5091381;28;20093;-73
2023/10/07 02:23:15;;;;;;;9.27;2.72;;;;;;;;;;5091158;28;20477;-73
2023/10/07 02:25:42;;;;;;;9.45;3.50;;;;;;;;;;5091128;28;20501;-73
2023/10/07 02:28:08;;;;;;;12.48;3.78;;;;;;;;;;5091372;28;20116;-73
2023/10/07 02:30:38;;;;;;;14.15;4.45;;;;;;;;;;5090897;28;20048;-72
2023/10/07 02:33:08;;;;;;;12.65;3.53;;;;;;;;;;5091446;28;20068;-72
2023/10/07 02:35:36;;;;;;;13.75;4.07;;;;;;;;;;5091491;28;20388;-72
2023/10/07 02:38:03;;;;;;;14.05;3.33;;;;;;;;;;5091466;28;20408;-72
2023/10/07 02:40:36;;;;;;;9.90;4.18;;;;;;;;;;5091513;28;20064;-73
2023/10/07 02:43:09;;;;;;;12.13;3.28;;;;;;;;;;5090764;28;20059;-73
2023/10/07 02:45:42;;;;;;;6.13;3.22;;;;;;;;;;5090732;28;20055;-72
2023/10/07 02:48:12;;;;;;;8.05;3.47;;;;;;;;;;5090693;28;20428;-72
2023/10/07 02:50:51;;;;;;;7.22;4.07;;;;;;;;;;5090868;28;20058;-73
2023/10/07 02:53:18;;;;;;;11.60;4.18;;;;;;;;;;5089365;28;20048;-72
2023/10/07 02:55:48;;;;;;;6.97;3.65;;;;;;;;;;5089402;28;20044;-72
2023/10/07 02:58:32;;;;;;;12.70;3.97;;;;;;;;;;5090704;28;20047;-73
2023/10/07 03:01:10;;;;;;;12.32;4.47;;;;;;;;;;5090562;28;20048;-72
2023/10/07 03:03:38;;;;;;;11.10;4.00;;;;;;;;;;5090394;28;20051;-73
2023/10/07 03:06:07;;;;;;;12.10;4.70;;;;;;;;;;5090404;28;20078;-72
2023/10/07 03:08:41;;;;;;;8.27;2.92;;;;;;;;;;5090426;28;20055;-73
2023/10/07 03:11:21;;;;;;;8.93;3.80;;;;;;;;;;5090582;28;20075;-73
2023/10/07 03:13:49;;;;;;;8.55;3.55;;;;;;;;;;5090043;28;20436;-73
2023/10/07 03:16:28;;;;;;;18.25;5.63;;;;;;;;;;5090621;28;20056;-72
2023/10/07 03:22:15;;;;;;;10.85;3.22;;;;;;;;;;5090646;28;20087;-72
2023/10/07 03:24:15;;;;;;;11.88;3.30;;;;;;;;;;5082625;28;20090;-71
2023/10/07 03:26:43;;;;;;;10.85;3.83;;;;;;;;;;5090009;28;20572;-72
2023/10/07 03:29:16;;;;;;;7.68;3.38;;;;;;;;;;5090294;28;20059;-71
2023/10/07 03:34:12;;;;;;;10.88;4.05;;;;;;;;;;5090285;28;20123;-72
2023/10/07 03:36:48;;;;;;;10.15;4.18;;;;;;;;;;5089679;28;20476;-71
2023/10/07 03:41:43;;;;;;;7.75;3.33;;;;;;;;;;5089695;28;20048;-72
2023/10/07 03:44:09;;;;;;;14.25;4.35;;;;;;;;;;5089946;28;20079;-74
2023/10/07 03:46:36;;;;;;;9.15;3.67;;;;;;;;;;5089772;28;20127;-72
2023/10/07 03:49:06;;;;;;;10.00;3.40;;;;;;;;;;5089585;28;20097;-72
2023/10/07 03:51:35;;;;;;;10.25;4.00;;;;;;;;;;5089681;28;20048;-72
2023/10/07 03:54:04;;;;;;;8.52;3.63;;;;;;;;;;5089696;28;20055;-72
2023/10/07 03:56:31;;;;;;;11.88;3.78;;;;;;;;;;5089820;28;20044;-72
2023/10/07 03:58:59;;;;;;;9.73;4.18;;;;;;;;;;5089540;28;20605;-72
2023/10/07 04:01:27;;;;;;;14.25;4.45;;;;;;;;;;5089571;28;20062;-72
2023/10/07 04:03:59;;;;;;;8.82;3.38;;;;;;;;;;5089110;28;20097;-73
2023/10/07 04:06:34;;;;;;;11.35;4.30;;;;;;;;;;5089441;28;20101;-72
2023/10/07 04:09:07;;;;;;;11.40;4.32;;;;;;;;;;5089405;28;20097;-72
2023/10/07 04:11:34;;;;;;;13.75;4.05;;;;;;;;;;5089988;28;20148;-72
2023/10/07 04:14:08;;;;;;;11.45;3.40;;;;;;;;;;5089453;28;20040;-72
2023/10/07 04:16:36;;;;;;;13.65;4.00;;;;;;;;;;5089083;28;20566;-72
2023/10/07 04:21:55;;;;;;;13.85;3.85;;;;;;;;;;5072681;28;20036;-72
2023/10/07 04:24:31;;;;;;;8.68;3.65;;;;;;;;;;5088761;28;20089;-72
2023/10/07 04:27:02;;;;;;;7.43;3.53;;;;;;;;;;5088682;28;20419;-73
2023/10/07 04:29:29;;;;;;;9.63;4.00;;;;;;;;;;5088976;28;20561;-74
2023/10/07 04:31:57;;;;;;;12.07;3.92;;;;;;;;;;5088864;28;20131;-71
2023/10/07 04:34:26;;;;;;;10.85;4.07;;;;;;;;;;5088514;28;20518;-72
2023/10/07 04:37:11;;;;;;;16.02;4.40;;;;;;;;;;5088668;28;20044;-72
2023/10/07 04:39:39;;;;;;;7.07;3.65;;;;;;;;;;5089241;28;20074;-72
2023/10/07 04:42:06;;;;;;;12.05;4.95;;;;;;;;;;5089048;28;20131;-71
2023/10/07 04:50:00;;;;;;;13.02;4.30;;;;;;;;;;5088809;28;20051;-72
2023/10/07 04:52:30;;;;;;;11.43;3.95;;;;;;;;;;5088860;28;20052;-73
2023/10/07 04:55:00;;;;;;;8.57;3.40;;;;;;;;;;5088845;28;20071;-72
2023/10/07 04:57:43;;;;;;;11.07;4.72;;;;;;;;;;5088576;28;20097;-72
2023/10/07 05:00:27;;;;;;;8.88;3.90;;;;;;;;;;5088721;28;20135;-71
2023/10/07 05:02:57;;;;;;;11.55;3.28;;;;;;;;;;5088564;28;20040;-72
2023/10/07 05:05:29;;;;;;;6.77;3.20;;;;;;;;;;5088349;28;20055;-72
2023/10/07 05:07:58;;;;;;;12.27;4.05;;;;;;;;;;5088223;28;20047;-72
2023/10/07 05:10:28;;;;;;;13.77;3.45;;;;;;;;;;5088424;28;20048;-72
2023/10/07 05:12:55;;;;;;;19.15;4.88;;;;;;;;;;5088235;28;20067;-71
2023/10/07 05:15:25;;;;;;;9.25;3.13;;;;;;;;;;5088535;28;20120;-71
2023/10/07 05:17:52;;;;;;;10.43;3.90;;;;;;;;;;5087940;28;20135;-72
2023/10/07 05:20:28;;;;;;;10.80;3.47;;;;;;;;;;5088372;28;20063;-72
2023/10/07 05:22:55;;;;;;;11.57;4.57;;;;;;;;;;5088223;28;20077;-72
2023/10/07 05:25:22;;;;;;;10.45;3.58;;;;;;;;;;5087754;28;20048;-71
2023/10/07 05:27:50;;;;;;;10.63;3.80;;;;;;;;;;5088228;28;20052;-72
2023/10/07 05:30:18;;;;;;;9.95;4.68;;;;;;;;;;5088136;28;20044;-72
2023/10/07 05:32:48;;;;;;;12.02;3.92;;;;;;;;;;5087980;28;20040;-72
2023/10/07 05:35:15;;;;;;;8.70;4.30;;;;;;;;;;5088188;28;20127;-72
2023/10/07 05:37:44;;;;;;;9.85;4.78;;;;;;;;;;5087853;28;20412;-72
2023/10/07 05:40:13;;;;;;;12.85;4.45;;;;;;;;;;5087670;28;20393;-72
2023/10/07 05:42:40;;;;;;;15.07;4.18;;;;;;;;;;5088713;28;20044;-72
2023/10/07 05:45:08;;;;;;;12.80;4.72;;;;;;;;;;5089255;28;20109;-73
2023/10/07 05:47:35;;;;;;;7.53;4.07;;;;;;;;;;5091775;28;20096;-72
2023/10/07 05:50:01;;;;;;;11.70;3.97;;;;;;;;;;5092068;28;20044;-71
2023/10/07 05:52:28;;;;;;;12.60;4.43;;;;;;;;;;5092037;28;20075;-71
2023/10/07 05:54:57;;;;;;;19.75;4.90;;;;;;;;;;5091658;28;20048;-72
2023/10/07 05:57:24;;;;;;;10.88;3.95;;;;;;;;;;5091902;28;20075;-72
2023/10/07 05:59:51;;;;;;;11.00;4.03;;;;;;;;;;5091677;28;20080;-71
2023/10/07 06:02:18;;;;;;;10.77;3.90;;;;;;;;;;5091603;28;20124;-72
2023/10/07 06:04:44;;;;;;;12.55;3.67;;;;;;;;;;5091750;28;20083;-72
2023/10/07 06:07:12;;;;;;;9.15;3.60;;;;;;;;;;5091319;28;20047;-72
2023/10/07 06:09:42;;;;;;;10.75;4.13;;;;;;;;;;5091696;28;20498;-72
2023/10/07 06:12:09;;;;;;;7.97;3.85;;;;;;;;;;5091250;28;20125;-72
2023/10/07 06:14:35;;;;;;;11.32;4.75;;;;;;;;;;5091937;28;20044;-73
2023/10/07 06:17:06;;;;;;;11.77;5.22;;;;;;;;;;5091337;28;20051;-72
2023/10/07 06:19:34;;;;;;;12.23;4.13;;;;;;;;;;5091381;28;20131;-72
2023/10/07 06:22:10;;;;;;;10.90;4.05;;;;;;;;;;5090859;28;20071;-71
2023/10/07 06:24:39;;;;;;;12.43;5.05;;;;;;;;;;5091055;28;20051;-72
2023/10/07 06:27:11;;;;;;;13.52;4.25;;;;;;;;;;5090819;28;20644;-72
2023/10/07 06:29:43;;;;;;;;;;;;;;;;;;5091579;28;20075;-72
2023/10/07 06:32:22;;;;;;;13.80;4.03;;;;;;;;;;5091446;28;19928;-73
2023/10/07 06:34:54;;;;;;;13.23;4.22;;;;;;;;;;5091140;28;20116;-73
2023/10/07 06:37:30;;;;;;;12.57;4.13;;;;;;;;;;5091341;28;20084;-72
2023/10/07 06:40:11;;;;;;;10.93;4.45;;;;;;;;;;5090849;28;20078;-72
2023/10/07 06:42:40;;;;;;;;;;;;;;;;;;5091561;28;20131;-71
2023/10/07 06:45:10;;;;;;;12.73;6.03;;;;;;;;;;5091203;28;19978;-71
2023/10/07 06:47:37;;;;;;;13.95;5.82;;;;;;;;;;5090582;28;20059;-72
2023/10/07 06:50:04;;;;;;;9.13;4.68;;;;;;;;;;5090947;28;20047;-72
2023/10/07 06:52:32;;;;;;;13.52;5.50;;;;;;;;;;5090713;28;20040;-74
2023/10/07 06:55:02;;;;;;;10.75;5.15;;;;;;;;;;5090852;28;20054;-72
2023/10/07 06:57:35;;;;;;;11.20;6.10;;;;;;;;;;5090053;28;20052;-72
2023/10/07 07:00:09;;;;;;;10.95;6.38;;;;;;;;;;5090907;28;20130;-74
2023/10/07 07:02:35;;;;;;;9.52;5.25;;;;;;;;;;5090508;28;20103;-74
2023/10/07 07:05:11;;;;;;;14.25;6.70;;;;;;;;;;5090656;28;20044;-74
2023/10/07 07:07:38;;;;;;;12.32;5.97;;;;;;;;;;5090376;28;20055;-74
2023/10/07 07:10:07;;;;;;;10.20;5.70;;;;;;;;;;5090270;28;20392;-74
2023/10/07 07:12:33;;;;;;;9.85;5.50;;;;;;;;;;5090934;28;20097;-73
2023/10/07 07:15:04;;;;;;;10.35;5.40;;;;;;;;;;5090817;28;20123;-74
2023/10/07 07:22:44;;;;;;;12.70;5.28;;;;;;;;;;5090575;28;20090;-72
2023/10/07 07:25:11;;;;;;;7.30;4.68;;;;;;;;;;5090229;28;20092;-74
2023/10/07 07:27:44;;;;;;;10.63;5.65;;;;;;;;;;5088460;28;20052;-72
2023/10/07 07:30:19;;;;;;;7.63;4.47;;;;;;;;;;5090211;28;20040;-72
2023/10/07 07:32:55;;;;;;;11.88;4.75;;;;;;;;;;5089643;28;20128;-72
2023/10/07 07:35:31;;;;;;;10.00;3.83;;;;;;;;;;5090207;28;20136;-73
2023/10/07 07:38:02;;;;;;;13.48;4.95;;;;;;;;;;5088471;28;20109;-72
2023/10/07 07:40:40;;;;;;;9.43;4.93;;;;;;;;;;5088436;28;20123;-72
2023/10/07 07:43:07;;;;;;;7.22;3.97;;;;;;;;;;5089827;28;20063;-71
2023/10/07 07:45:37;;;;;;;8.82;4.22;;;;;;;;;;5089329;28;20048;-72
2023/10/07 07:48:07;;;;;;;16.33;4.50;;;;;;;;;;5089529;28;20123;-71
2023/10/07 07:50:43;;;;;;;8.55;3.90;;;;;;;;;;5089527;28;20044;-71
2023/10/07 07:53:12;;;;;;;11.07;5.18;;;;;;;;;;5089365;28;20056;-71
2023/10/07 07:55:43;;;;;;;9.75;4.25;;;;;;;;;;5088895;28;20048;-71
2023/10/07 07:58:10;;;;;;;9.77;3.83;;;;;;;;;;5089336;28;20462;-72
2023/10/07 08:00:42;;;;;;;7.13;3.53;;;;;;;;;;5089346;28;20127;-73
2023/10/07 08:03:09;;;;;;;9.40;4.53;;;;;;;;;;5089481;28;20080;-72
2023/10/07 08:05:39;;;;;;;8.70;3.95;;;;;;;;;;5089357;28;20044;-72
2023/10/07 08:08:21;;;;;;;11.25;4.18;;;;;;;;;;5089098;28;20059;-71
2023/10/07 08:10:47;;;;;;;;;;;;;;;;;;5090047;28;20048;-71
2023/10/07 08:13:17;;;;;;;7.78;3.90;;;;;;;;;;5089486;28;19931;-72
2023/10/07 08:15:47;;;;;;;8.73;4.50;;;;;;;;;;5088715;28;20683;-72
2023/10/07 08:18:13;;;;;;;8.88;3.97;;;;;;;;;;5088925;28;20036;-71
2023/10/07 08:20:47;;;;;;;10.73;3.80;;;;;;;;;;5089037;28;20044;-73
2023/10/07 08:23:22;;;;;;;7.63;3.90;;;;;;;;;;5088631;28;20044;-71
2023/10/07 08:25:49;;;;;;;9.50;3.78;;;;;;;;;;5088718;28;20056;-71
2023/10/07 08:28:34;;;;;;;7.93;3.60;;;;;;;;;;5088675;28;20048;-73
2023/10/07 08:31:13;;;;;;;8.95;3.60;;;;;;;;;;5088722;28;20075;-72
2023/10/07 08:33:40;;;;;;;12.73;4.35;;;;;;;;;;5088418;28;20048;-71
2023/10/07 08:36:07;;;;;;;5.68;3.60;;;;;;;;;;5088483;28;20041;-70
2023/10/07 08:38:44;;;;;;;6.07;4.40;;;;;;;;;;5088456;28;20101;-73
2023/10/07 08:41:16;;;;;;;8.10;4.22;;;;;;;;;;5088729;28;20162;-71
2023/10/07 08:43:44;;;;;;;5.10;3.83;;;;;;;;;;5088632;28;20044;-73
2023/10/07 08:46:12;;;;;;;10.13;4.28;;;;;;;;;;5088113;28;20048;-74
2023/10/07 08:48:49;;;;;;;8.57;5.05;;;;;;;;;;5088110;28;20358;-72
2023/10/07 08:51:25;;;;;;;12.27;4.32;;;;;;;;;;5087787;28;20075;-73
2023/10/07 08:53:57;;;;;;;11.80;5.78;;;;;;;;;;5088078;28;20527;-71
2023/10/07 08:56:27;;;;;;;13.52;4.60;;;;;;;;;;5088394;28;20125;-72
2023/10/07 08:58:54;;;;;;;6.20;4.30;;;;;;;;;;5088049;28;20076;-71
2023/10/07 09:01:24;;;;;;;9.15;4.50;;;;;;;;;;5088677;28;20048;-71
2023/10/07 09:03:53;;;;;;;10.75;5.30;;;;;;;;;;5087924;28;20123;-69
2023/10/07 09:06:20;;;;;;;10.77;5.63;;;;;;;;;;5088112;28;20461;-70
2023/10/07 09:08:47;;;;;;;10.73;5.55;;;;;;;;;;5087859;28;20103;-74
2023/10/07 09:11:19;;;;;;;8.50;6.15;;;;;;;;;;5087843;28;20071;-76
2023/10/07 09:13:47;;;;;;;13.27;5.85;;;;;;;;;;5088609;28;20040;-69
2023/10/07 09:16:13;;;;;;;17.45;7.47;;;;;;;;;;5087918;28;20067;-70
2023/10/07 09:18:44;;;;;;;12.07;5.13;;;;;;;;;;5087926;28;20467;-67
2023/10/07 09:21:22;;;;;;;11.68;5.60;;;;;;;;;;5087327;28;20059;-71
2023/10/07 09:23:48;;;;;;;10.95;6.50;;;;;;;;;;5087488;28;20040;-71
2023/10/07 09:26:21;;;;;;;10.07;5.80;;;;;;;;;;5088538;28;20047;-71
2023/10/07 09:28:51;;;;;;;12.60;7.07;;;;;;;;;;5088373;28;20052;-66
2023/10/07 09:31:20;;;;;;;14.25;6.43;;;;;;;;;;5087948;28;20048;-69
2023/10/07 09:33:49;;;;;;;15.13;6.90;;;;;;;;;;5087840;28;20040;-66
2023/10/07 09:41:39;;;;;;;15.48;7.63;;;;;;;;;;5070524;28;20083;-72
2023/10/07 09:44:20;;;;;;;12.23;7.35;;;;;;;;;;5084249;28;20512;-71
2023/10/07 09:46:52;;;;;;;12.88;7.55;;;;;;;;;;5078736;28;20127;-71
2023/10/07 09:49:20;;;;;;;13.52;7.80;;;;;;;;;;5078955;28;20055;-71
2023/10/07 09:51:50;;;;;;;12.68;7.95;;;;;;;;;;5078515;28;20504;-72
2023/10/07 09:54:37;;;;;;;12.55;7.22;;;;;;;;;;5079482;28;20052;-71
2023/10/07 09:57:20;;;;;;;14.32;8.35;;;;;;;;;;5072051;28;20115;-72
2023/10/07 09:59:51;;;;;;;11.40;8.38;;;;;;;;;;5078696;28;20048;-71
2023/10/07 10:02:25;;;;;;;16.30;9.43;;;;;;;;;;5086997;28;20048;-72
2023/10/07 10:05:12;;;;;;;15.63;8.25;;;;;;;;;;5082927;28;20226;-72
2023/10/07 10:07:49;;;;;;;11.77;8.73;;;;;;;;;;5083043;28;20040;-71
2023/10/07 10:10:16;;;;;;;18.95;10.27;;;;;;;;;;5078224;28;20048;-70
2023/10/07 10:13:17;;;;;;;18.63;9.95;;;;;;;;;;5078088;28;20048;-71
2023/10/07 10:18:06;;;;;;;14.73;10.25;;;;;;;;;;5084058;28;20139;-71
2023/10/07 10:20:42;;;;;;;12.23;9.05;;;;;;;;;;5086117;28;20492;-69
2023/10/07 10:23:21;;;;;;;19.52;10.18;;;;;;;;;;5072348;28;20048;-70
2023/10/07 10:25:51;;;;;;;16.92;10.30;;;;;;;;;;5084282;28;20474;-68
2023/10/07 10:28:28;;;;;;;18.75;8.68;;;;;;;;;;5082265;28;20074;-67
2023/10/07 10:30:55;;;;;;;16.73;9.18;;;;;;;;;;5085294;28;20052;-70
2023/10/07 10:33:24;;;;;;;15.75;8.93;;;;;;;;;;5090086;28;20070;-66
2023/10/07 10:35:59;;;;;;;14.23;9.25;;;;;;;;;;5085055;28;20117;-68
2023/10/07 10:38:40;;;;;;;12.65;9.77;;;;;;;;;;5088216;28;20076;-67
2023/10/07 10:41:08;;;;;;;15.68;10.48;;;;;;;;;;5092301;28;20112;-68
2023/10/07 10:43:35;;;;;;;15.50;10.63;;;;;;;;;;5096548;28;20044;-70
2023/10/07 10:46:04;;;;;;;16.52;10.45;;;;;;;;;;5089450;28;20123;-65
2023/10/07 10:48:32;;;;;;;14.50;10.67;;;;;;;;;;5089197;28;20131;-66
2023/10/07 10:50:58;;;;;;;18.15;11.60;;;;;;;;;;5086496;28;20325;-68
2023/10/07 10:53:25;;;;;;;16.50;11.93;;;;;;;;;;5088368;28;20055;-71
2023/10/07 10:55:54;;;;;;;20.05;12.00;;;;;;;;;;5087794;28;20048;-67
2023/10/07 10:58:21;;;;;;;17.25;11.68;;;;;;;;;;5084364;28;20079;-66
2023/10/07 11:00:57;;;;;;;22.90;12.15;;;;;;;;;;5082656;28;20672;-65
2023/10/07 11:03:23;;;;;;;15.98;11.65;;;;;;;;;;5080172;28;20049;-71
2023/10/07 11:05:52;;;;;;;20.90;11.60;;;;;;;;;;5079213;28;20115;-65
2023/10/07 11:08:23;;;;;;;23.80;11.30;;;;;;;;;;5085593;28;20047;-67
2023/10/07 11:10:51;;;;;;;15.02;9.57;;;;;;;;;;5088950;28;20055;-66
2023/10/07 11:13:17;;;;;;;16.48;9.43;;;;;;;;;;5073796;28;20099;-70
2023/10/07 11:16:09;;;;;;;15.57;10.23;;;;;;;;;;5089418;28;20154;-66
2023/10/07 11:18:38;;;;;;;23.80;11.07;;;;;;;;;;5082280;28;20548;-68
2023/10/07 11:21:11;;;;;;;13.13;10.35;;;;;;;;;;5083209;28;20095;-64
2023/10/07 11:23:49;;;;;;;21.20;10.07;;;;;;;;;;5089272;28;20083;-65
2023/10/07 11:26:19;;;;;;;18.08;9.55;;;;;;;;;;5076497;28;20141;-69
2023/10/07 11:28:48;;;;;;;14.05;9.10;;;;;;;;;;5085001;28;20044;-66
2023/10/07 11:31:20;;;;;;;15.38;9.38;;;;;;;;;;5075399;28;20074;-68
2023/10/07 11:33:50;;;;;;;17.52;10.18;;;;;;;;;;5088627;28;20105;-66
2023/10/07 11:36:17;;;;;;;15.85;9.60;;;;;;;;;;5087816;28;20056;-66
2023/10/07 11:38:43;;;;;;;12.90;9.57;;;;;;;;;;5087530;28;20137;-67
2023/10/07 11:41:16;;;;;;;16.83;9.82;;;;;;;;;;5088650;28;20128;-65
2023/10/07 11:43:43;;;;;;;16.60;8.55;;;;;;;;;;5082120;28;20047;-68
2023/10/07 11:46:13;;;;;;;15.43;8.82;;;;;;;;;;5085408;28;20062;-65
2023/10/07 11:48:41;;;;;;;11.25;7.43;;;;;;;;;;5081889;28;20097;-68
2023/10/07 11:51:08;;;;;;;12.38;7.63;;;;;;;;;;5088065;28;20044;-66
2023/10/07 11:53:35;;;;;;;14.85;9.38;;;;;;;;;;5088145;28;20052;-67
2023/10/07 11:56:05;;;;;;;13.80;8.55;;;;;;;;;;5087757;28;20109;-65
2023/10/07 11:58:32;;;;;;;14.43;8.85;;;;;;;;;;5077347;28;20658;-68
2023/10/07 12:01:02;;;;;;;12.90;8.38;;;;;;;;;;5087965;28;20047;-67
2023/10/07 12:03:32;;;;;;;15.48;8.30;;;;;;;;;;5082625;28;20040;-66
2023/10/07 12:05:59;;;;;;;12.77;8.63;;;;;;;;;;5085844;28;20063;-67
2023/10/07 12:08:26;;;;;;;12.48;8.02;;;;;;;;;;5088582;28;20079;-65
2023/10/07 12:10:56;;;;;;;16.67;8.13;;;;;;;;;;5081356;28;20148;-70
2023/10/07 12:13:23;;;;;;;14.77;8.38;;;;;;;;;;5090229;28;20449;-63
2023/10/07 12:15:50;;;;;;;13.30;8.52;;;;;;;;;;5081556;28;20059;-64
2023/10/07 12:18:31;;;;;;;12.77;7.55;;;;;;;;;;5088359;28;20539;-65
2023/10/07 12:21:00;;;;;;;12.93;9.18;;;;;;;;;;5085999;28;20044;-65
2023/10/07 12:23:27;;;;;;;17.95;8.15;;;;;;;;;;5087663;28;20129;-64
2023/10/07 12:25:54;;;;;;;13.68;7.78;;;;;;;;;;5083729;28;20060;-64
2023/10/07 12:28:21;;;;;;;15.30;8.45;;;;;;;;;;5087252;28;20048;-64
2023/10/07 12:30:49;;;;;;;12.30;8.35;;;;;;;;;;5081350;28;20125;-64
2023/10/07 12:33:15;;;;;;;10.93;7.70;;;;;;;;;;5085803;28;20041;-64
2023/10/07 12:35:58;;;;;;;12.85;8.82;;;;;;;;;;5087308;28;20423;-64
2023/10/07 12:38:24;;;;;;;17.05;7.95;;;;;;;;;;5079240;28;20569;-64
2023/10/07 12:40:51;;;;;;;19.13;8.05;;;;;;;;;;5086106;28;20063;-64
2023/10/07 12:43:17;;;;;;;12.90;7.38;;;;;;;;;;5087061;28;20052;-70
2023/10/07 12:45:45;;;;;;;16.55;8.32;;;;;;;;;;5087617;28;20147;-67
2023/10/07 12:48:12;;;;;;;20.27;9.02;;;;;;;;;;5086592;28;20044;-67
2023/10/07 12:50:42;;;;;;;25.48;8.43;;;;;;;;;;5087206;28;20048;-71
2023/10/07 12:53:10;;;;;;;18.27;9.50;;;;;;;;;;5073042;28;20095;-66
2023/10/07 12:59:18;;;;;;;11.18;7.38;;;;;;;;;;5074054;28;20649;-71
2023/10/07 13:01:47;;;;;;;17.08;8.00;;;;;;;;;;5079991;28;20048;-67
2023/10/07 13:11:20;;;;;;;17.65;8.27;;;;;;;;;;5084467;28;20095;-69
2023/10/07 13:13:47;;;;;;;13.00;7.93;;;;;;;;;;5085959;28;20048;-68
2023/10/07 13:16:14;;;;;;;17.80;7.97;;;;;;;;;;5086766;28;20082;-66
2023/10/07 13:18:41;;;;;;;16.90;8.27;;;;;;;;;;5082975;28;20517;-67
2023/10/07 13:21:13;;;;;;;13.63;8.07;;;;;;;;;;5083740;28;20048;-69
2023/10/07 13:23:40;;;;;;;20.45;7.72;;;;;;;;;;5078864;28;20047;-67
2023/10/07 13:26:10;;;;;;;13.88;8.75;;;;;;;;;;5086827;28;20131;-66
2023/10/07 13:28:38;;;;;;;14.33;7.00;;;;;;;;;;5084811;28;20040;-68
2023/10/07 13:31:08;;;;;;;13.40;7.03;;;;;;;;;;5086272;28;20064;-70
2023/10/07 13:33:38;;;;;;;12.02;7.55;;;;;;;;;;5074564;28;20487;-71
2023/10/07 13:36:08;;;;;;;15.95;8.90;;;;;;;;;;5086770;28;20158;-68
2023/10/07 13:38:35;;;;;;;19.52;7.88;;;;;;;;;;5079250;28;20048;-69
2023/10/07 13:41:05;;;;;;;15.18;7.65;;;;;;;;;;5084463;28;20052;-67
2023/10/07 13:43:35;;;;;;;15.10;6.40;;;;;;;;;;5086830;28;20044;-68
2023/10/07 13:46:11;;;;;;;13.85;7.97;;;;;;;;;;5082249;28;20073;-69
2023/10/07 13:48:38;;;;;;;17.60;8.43;;;;;;;;;;5080953;28;20044;-69
2023/10/07 13:51:06;;;;;;;15.25;8.27;;;;;;;;;;5079278;28;20056;-68
2023/10/07 13:54:09;;;;;;;16.45;7.97;;;;;;;;;;5086587;28;20499;-68
2023/10/07 13:56:53;;;;;;;15.55;7.60;;;;;;;;;;5082046;28;20450;-70
2023/10/07 13:59:24;;;;;;;15.07;8.50;;;;;;;;;;5085539;28;20080;-67
2023/10/07 14:01:52;;;;;;;18.52;7.53;;;;;;;;;;5076841;28;20123;-66
2023/10/07 14:04:19;;;;;;;16.30;8.90;;;;;;;;;;5084398;28;20051;-67
2023/10/07 14:06:46;;;;;;;15.30;6.80;;;;;;;;;;5087565;28;20055;-68
2023/10/07 14:09:38;;;;;;;10.07;6.78;;;;;;;;;;5084585;28;20072;-67
2023/10/07 14:12:01;;;;;;;15.02;7.68;;;;;;;;;;5090202;28;20078;-67
2023/10/07 14:14:27;;;;;;;16.58;7.20;;;;;;;;;;5081537;28;20532;-67
2023/10/07 14:17:00;;;;;;;15.27;7.55;;;;;;;;;;5084001;28;20067;-71
2023/10/07 14:19:28;;;;;;;18.05;8.38;;;;;;;;;;5085747;28;20503;-71
2023/10/07 14:21:54;;;;;;;13.13;7.45;;;;;;;;;;5082242;28;20051;-68
2023/10/07 14:24:27;;;;;;;12.93;7.85;;;;;;;;;;5075962;28;20048;-69
2023/10/07 14:26:56;;;;;;;20.90;8.48;;;;;;;;;;5080880;28;20451;-70
2023/10/07 14:29:22;;;;;;;12.00;8.38;;;;;;;;;;5086411;28;20765;-65
2023/10/07 14:31:51;;;;;;;13.75;7.30;;;;;;;;;;5079283;28;20542;-67
2023/10/07 14:34:18;;;;;;;14.95;9.68;;;;;;;;;;5079285;28;20123;-71
2023/10/07 14:36:45;;;;;;;16.55;8.32;;;;;;;;;;5080201;28;20064;-74
2023/10/07 14:39:12;;;;;;;13.25;8.05;;;;;;;;;;5085726;28;20485;-68
2023/10/07 14:41:41;;;;;;;16.60;8.77;;;;;;;;;;5081712;28;20045;-67
2023/10/07 14:44:08;;;;;;;13.60;7.78;;;;;;;;;;5086821;28;20526;-66
2023/10/07 14:46:42;;;;;;;12.45;8.25;;;;;;;;;;5081910;28;20044;-66
2023/10/07 14:49:09;;;;;;;10.77;7.32;;;;;;;;;;5084411;28;20712;-66
2023/10/07 14:51:36;;;;;;;11.10;8.43;;;;;;;;;;5076569;28;20513;-65
2023/10/07 14:54:03;;;;;;;9.90;6.47;;;;;;;;;;5085750;28;20556;-68
2023/10/07 14:56:30;;;;;;;12.73;6.68;;;;;;;;;;5085944;28;20048;-67
2023/10/07 14:58:56;;;;;;;16.02;8.30;;;;;;;;;;5085859;28;20040;-67
2023/10/07 15:01:23;;;;;;;11.10;6.82;;;;;;;;;;5087038;28;20118;-68
2023/10/07 15:03:50;;;;;;;15.27;7.68;;;;;;;;;;5081982;28;20068;-69
2023/10/07 15:06:17;;;;;;;14.40;8.02;;;;;;;;;;5085251;28;20094;-68
2023/10/07 15:08:44;;;;;;;15.05;7.40;;;;;;;;;;5083146;28;20059;-69
2023/10/07 15:11:20;;;;;;;11.13;7.47;;;;;;;;;;5082976;28;20044;-68
2023/10/07 15:13:48;;;;;;;13.23;7.68;;;;;;;;;;5087951;28;20056;-68
2023/10/07 15:16:14;;;;;;;12.15;8.32;;;;;;;;;;5087026;28;20083;-67
2023/10/07 15:18:42;;;;;;;13.50;8.02;;;;;;;;;;5082814;28;20051;-68
2023/10/07 15:21:12;;;;;;;11.77;8.00;;;;;;;;;;5086929;28;20044;-67
2023/10/07 15:23:39;;;;;;;12.63;7.40;;;;;;;;;;5078173;28;20155;-67
2023/10/07 15:26:12;;;;;;;10.90;7.57;;;;;;;;;;5086627;28;20713;-67
2023/10/07 15:28:39;;;;;;;13.32;8.15;;;;;;;;;;5082735;28;20048;-67
2023/10/07 15:31:09;;;;;;;12.20;8.02;;;;;;;;;;5080653;28;20059;-66
2023/10/07 15:33:51;;;;;;;19.55;9.10;;;;;;;;;;5087415;28;20173;-68
2023/10/07 15:36:19;;;;;;;18.63;9.32;;;;;;;;;;5086706;28;20121;-77
2023/10/07 15:38:48;;;;;;;15.02;9.77;;;;;;;;;;5076484;28;20079;-72
2023/10/07 15:41:15;;;;;;;16.98;11.18;;;;;;;;;;5084093;28;20040;-75
2023/10/07 15:43:42;;;;;;;16.33;11.13;;;;;;;;;;5085785;28;20523;-70
2023/10/07 15:46:10;;;;;;;21.88;11.75;;;;;;;;;;5083918;28;20051;-67